Kingdom City, Missouri
Current Conditions -  °F | °C
As of 8:17 AM on Saturday 22 Nov 2014 (Local Time) from KCOU Reporting Station
Broken Clouds Broken Clouds  
Wind Chill: 52°   Ceiling: 1700
Heat Index: 52°   Visibility: 10mi
Dew Point: 46°   Wind: 12mph
Humidity: 80%   Direction: 180°S
Pressure: 30.04"   Gusts: NA
Location:  38.95°N, 91.94°W
Report Text: KCOU 221417Z 18010KT 10SM BKN017 11/08 A3004 RMK AO2 T01110078
Loading
Personal Weather Stations






























Interactive Weather Map New forecast layout! Learn more

10-Day Weather Forecast

Advertisements
Track Severe Weather on mobile